Time;durP1;ratioP1;P1;durP2;ratioP2;P2;SDS_P1;SDS_P2;PMS_P1;PMS_P2;Temp;Humidity;BMP_temperature;BMP_pressure;BME280_temperature;BME280_humidity;BME280_pressure;Samples;Min_cycle;Max_cycle;Signal;HPM_P1;HPM_P2
2022/09/07 00:02:46;;;;;;;5.50;1.60;;;;;;;16.00;39.88;99349.05;238744;1190;140521;-58
2022/09/07 00:07:49;;;;;;;4.20;1.90;;;;;;;15.95;39.91;99348.34;238758;1192;140898;-58
2022/09/07 00:12:52;;;;;;;7.30;2.40;;;;;;;15.91;40.03;99347.42;238755;1190;139523;-58
2022/09/07 00:17:55;;;;;;;5.60;1.90;;;;;;;15.86;40.01;99347.13;238844;1190;139417;-58
2022/09/07 00:22:58;;;;;;;3.80;1.90;;;;;;;15.79;40.08;99345.54;238909;1190;139389;-58
2022/09/07 00:28:02;;;;;;;4.20;2.10;;;;;;;15.72;40.37;99340.13;238603;1191;139592;-58
2022/09/07 00:33:05;;;;;;;5.20;2.20;;;;;;;15.66;40.33;99338.45;238728;1190;140000;-59
2022/09/07 00:38:08;;;;;;;4.70;1.80;;;;;;;15.59;40.53;99343.64;238729;1192;139227;-59
2022/09/07 00:43:30;;;;;;;3.50;2.00;;;;;;;15.50;40.71;99345.06;238702;1190;140045;-59
2022/09/07 00:48:41;;;;;;;6.00;2.30;;;;;;;15.42;40.88;99338.59;238537;1192;140564;-59
2022/09/07 00:53:54;;;;;;;4.10;2.40;;;;;;;15.34;41.05;99342.19;238441;1192;139535;-59
2022/09/07 00:58:58;;;;;;;4.00;2.00;;;;;;;15.29;41.10;99338.68;238698;1192;139469;-59
2022/09/07 01:04:02;;;;;;;7.00;2.20;;;;;;;15.22;41.13;99337.06;238714;1190;209944;-60
2022/09/07 01:09:10;;;;;;;5.40;2.20;;;;;;;15.15;41.20;99332.20;239314;1185;140366;-59
2022/09/07 01:14:14;;;;;;;5.70;2.30;;;;;;;15.11;41.32;99327.14;238795;1190;139177;-59
2022/09/07 01:19:51;;;;;;;3.90;2.10;;;;;;;15.07;41.43;99325.13;238791;1190;139015;-58
2022/09/07 01:25:20;;;;;;;5.70;2.30;;;;;;;15.00;41.67;99326.17;238817;1191;139740;-59
2022/09/07 01:30:25;;;;;;;3.80;2.00;;;;;;;14.95;41.80;99326.95;238758;1190;139249;-58
2022/09/07 01:35:43;;;;;;;3.50;1.70;;;;;;;14.89;42.00;99324.48;238783;1190;139679;-58
2022/09/07 01:40:55;;;;;;;7.50;2.20;;;;;;;14.85;42.07;99319.12;238880;1190;139387;-57
2022/09/07 01:46:02;;;;;;;3.80;2.30;;;;;;;14.80;42.19;99305.38;238759;1190;139764;-58
2022/09/07 01:51:05;;;;;;;4.40;2.70;;;;;;;14.78;42.25;99306.98;238639;1190;139278;-58
2022/09/07 01:56:26;;;;;;;5.80;2.50;;;;;;;14.75;42.31;99303.61;238818;1190;139634;-59
2022/09/07 02:01:32;;;;;;;5.90;2.60;;;;;;;14.72;42.52;99297.76;238723;1190;139401;-57
2022/09/07 02:06:49;;;;;;;6.70;2.50;;;;;;;14.68;42.56;99291.62;238641;1190;139535;-57
2022/09/07 02:11:53;;;;;;;4.50;2.10;;;;;;;14.64;42.75;99297.11;238602;1192;139474;-59
2022/09/07 02:17:09;;;;;;;7.70;2.40;;;;;;;14.59;42.78;99294.80;238788;1191;139305;-57
2022/09/07 02:22:17;;;;;;;6.00;2.40;;;;;;;14.54;42.84;99294.66;238461;1192;141796;-59
2022/09/07 02:27:32;;;;;;;5.20;2.40;;;;;;;14.47;42.87;99296.73;238731;1191;139862;-58
2022/09/07 02:32:36;;;;;;;7.90;2.70;;;;;;;14.40;43.00;99296.15;238732;1191;139839;-58
2022/09/07 02:37:41;;;;;;;8.10;2.70;;;;;;;14.33;43.10;99293.84;238798;1190;139012;-58
2022/09/07 02:42:46;;;;;;;6.00;2.60;;;;;;;14.26;43.13;99287.40;238725;1190;139103;-58
2022/09/07 02:48:33;;;;;;;5.60;2.80;;;;;;;14.18;43.22;99288.46;238761;1192;140383;-56
2022/09/07 02:53:55;;;;;;;6.60;3.20;;;;;;;14.12;43.53;99285.41;238675;1192;238263;-57
2022/09/07 02:59:10;;;;;;;7.40;3.20;;;;;;;14.03;43.59;99281.55;238897;1191;140502;-59
2022/09/07 03:04:40;;;;;;;4.80;2.90;;;;;;;13.96;43.66;99280.26;238435;1192;139821;-60
2022/09/07 03:09:49;;;;;;;7.50;2.90;;;;;;;13.89;43.94;99280.58;238554;1192;139466;-61
2022/09/07 03:14:51;;;;;;;6.10;3.20;;;;;;;13.85;44.00;99293.55;238631;1191;139245;-61
2022/09/07 03:19:54;;;;;;;6.70;2.90;;;;;;;13.84;44.18;99297.17;238854;1191;139403;-60
2022/09/07 03:24:57;;;;;;;5.80;2.80;;;;;;;13.79;44.20;99294.02;238510;1192;140491;-59
2022/09/07 03:30:00;;;;;;;4.40;2.90;;;;;;;13.70;44.17;99291.09;238391;1192;140323;-59
2022/09/07 03:35:06;;;;;;;4.90;2.90;;;;;;;13.62;44.49;99295.41;238739;1191;139908;-59
2022/09/07 03:40:12;;;;;;;6.90;3.20;;;;;;;13.55;44.54;99298.38;238472;1192;139183;-60
2022/09/07 03:45:15;;;;;;;5.60;2.80;;;;;;;13.50;44.75;99293.76;238550;1191;139408;-59
2022/09/07 03:50:18;;;;;;;7.90;3.30;;;;;;;13.42;44.91;99291.42;238673;1191;140387;-59
2022/09/07 03:55:21;;;;;;;7.50;3.10;;;;;;;13.34;45.11;99293.92;238756;1190;139882;-58
2022/09/07 04:00:24;;;;;;;8.50;3.50;;;;;;;13.28;45.24;99291.85;238585;1192;140399;-59
2022/09/07 04:05:27;;;;;;;9.10;3.40;;;;;;;13.21;45.43;99291.27;238497;1192;139891;-58
2022/09/07 04:10:31;;;;;;;7.30;3.30;;;;;;;13.14;45.29;99292.05;238836;1192;139236;-59
2022/09/07 04:15:34;;;;;;;8.60;3.10;;;;;;;13.11;45.57;99292.30;238768;1192;140664;-59
2022/09/07 04:20:37;;;;;;;6.40;2.90;;;;;;;13.09;45.56;99294.39;238837;1191;139188;-59
2022/09/07 04:25:47;;;;;;;5.90;2.70;;;;;;;13.05;45.58;99298.38;238668;1190;139752;-60
2022/09/07 04:30:50;;;;;;;6.70;3.40;;;;;;;13.02;45.74;99298.02;238825;1190;139613;-60
2022/09/07 04:35:53;;;;;;;5.90;3.20;;;;;;;13.02;46.07;99305.38;238743;1190;139344;-60
2022/09/07 04:40:59;;;;;;;6.40;3.20;;;;;;;12.99;46.14;99311.23;238631;1192;139209;-60
2022/09/07 04:46:04;;;;;;;9.80;3.30;;;;;;;12.98;46.02;99323.99;238670;1192;140323;-61
2022/09/07 04:51:09;;;;;;;6.60;3.60;;;;;;;12.95;46.48;99329.66;238745;1190;139227;-60
2022/09/07 04:56:12;;;;;;;5.00;3.30;;;;;;;12.93;46.49;99318.09;238749;1190;141718;-60
2022/09/07 05:01:21;;;;;;;6.00;3.20;;;;;;;12.93;46.78;99313.09;238671;1192;141324;-61
2022/09/07 05:06:25;;;;;;;10.40;3.90;;;;;;;12.97;46.62;99308.91;238802;1190;142112;-61
2022/09/07 05:11:28;;;;;;;14.10;3.80;;;;;;;12.99;46.80;99301.98;238718;1190;139358;-60
2022/09/07 05:16:31;;;;;;;16.30;4.50;;;;;;;13.04;46.88;99294.02;238744;1190;138995;-60
2022/09/07 05:21:34;;;;;;;10.70;3.90;;;;;;;13.09;46.98;99300.60;238636;1192;139240;-61
2022/09/07 05:26:38;;;;;;;10.30;4.00;;;;;;;13.12;47.14;99304.87;238496;1192;140191;-61
2022/09/07 05:31:41;;;;;;;11.30;4.10;;;;;;;13.17;47.10;99304.55;238753;1191;139573;-60
2022/09/07 05:36:44;;;;;;;7.70;3.90;;;;;;;13.23;47.25;99307.84;238658;1190;139269;-60
2022/09/07 05:41:47;;;;;;;10.80;4.20;;;;;;;13.31;47.16;99304.52;238470;1192;139584;-61
2022/09/07 05:46:51;;;;;;;14.00;4.50;;;;;;;13.45;47.82;99305.44;238476;1191;139557;-60
2022/09/07 05:51:54;;;;;;;14.10;4.30;;;;;;;13.75;47.67;99306.41;238788;1192;139871;-57
2022/09/07 05:56:57;;;;;;;9.30;4.70;;;;;;;13.97;47.52;99303.42;238788;1190;139325;-58
2022/09/07 06:02:00;;;;;;;12.80;5.00;;;;;;;14.16;47.29;99305.05;238222;1191;139519;-59
2022/09/07 06:07:03;;;;;;;7.90;3.90;;;;;;;14.25;46.99;99309.27;238463;1192;140208;-57
2022/09/07 06:12:23;;;;;;;10.50;4.40;;;;;;;14.56;47.72;99307.33;238807;1190;139287;-58
2022/09/07 06:17:30;;;;;;;10.60;4.90;;;;;;;14.90;47.38;99300.30;238832;1190;139870;-61
2022/09/07 06:22:36;;;;;;;14.40;4.70;;;;;;;15.26;47.91;99305.63;238700;1191;139216;-63
2022/09/07 06:27:39;;;;;;;11.70;4.80;;;;;;;15.83;47.63;99303.88;238450;1192;139540;-60
2022/09/07 06:32:42;;;;;;;14.00;5.20;;;;;;;15.91;46.30;99305.38;238877;1190;139053;-60
2022/09/07 06:37:46;;;;;;;15.70;5.00;;;;;;;15.81;45.96;99304.20;238680;1191;139566;-61
2022/09/07 06:42:49;;;;;;;10.40;4.60;;;;;;;15.82;46.20;99295.73;238619;1190;139461;-61
2022/09/07 06:47:53;;;;;;;13.00;5.00;;;;;;;15.97;46.28;99292.22;238581;1190;139707;-60
2022/09/07 06:52:56;;;;;;;12.50;5.70;;;;;;;15.79;45.50;99294.37;238663;1192;139546;-61
2022/09/07 06:58:19;;;;;;;15.20;5.50;;;;;;;15.58;45.58;99294.23;238517;1192;141768;-61
2022/09/07 07:03:23;;;;;;;14.20;5.50;;;;;;;15.42;45.63;99293.45;238660;1190;138901;-61
2022/09/07 07:08:25;;;;;;;13.90;5.40;;;;;;;15.36;45.86;99300.04;238642;1192;139202;-61
2022/09/07 07:13:28;;;;;;;12.40;5.30;;;;;;;15.36;46.21;99300.73;238470;1192;139783;-60
2022/09/07 07:18:32;;;;;;;14.20;4.80;;;;;;;15.38;46.44;99294.10;238677;1192;140390;-61
2022/09/07 07:23:36;;;;;;;11.80;4.90;;;;;;;15.46;46.60;99291.50;238462;1192;139197;-60
2022/09/07 07:28:47;;;;;;;17.10;5.00;;;;;;;15.56;46.67;99289.17;238627;1191;139134;-60
2022/09/07 07:34:07;;;;;;;13.00;4.80;;;;;;;15.64;46.85;99283.14;238767;1190;139354;-59
2022/09/07 07:39:10;;;;;;;11.40;5.20;;;;;;;15.72;47.09;99287.55;238500;1192;139802;-59
2022/09/07 07:44:33;;;;;;;19.10;5.00;;;;;;;15.85;46.96;99282.83;238578;1192;139309;-59
2022/09/07 07:49:36;;;;;;;11.50;5.30;;;;;;;15.97;47.21;99277.89;238578;1192;139737;-60
2022/09/07 07:54:39;;;;;;;11.60;5.60;;;;;;;16.11;47.22;99276.06;238805;1190;139731;-58
2022/09/07 07:59:42;;;;;;;11.60;5.20;;;;;;;16.22;47.13;99276.37;238561;1191;139431;-59
2022/09/07 08:04:45;;;;;;;11.10;5.30;;;;;;;16.34;47.07;99281.13;238882;1190;139837;-60
2022/09/07 08:09:48;;;;;;;11.40;5.80;;;;;;;16.47;47.29;99277.52;238491;1192;139639;-59
2022/09/07 08:14:52;;;;;;;10.00;5.50;;;;;;;16.65;47.28;99272.63;238427;1191;141676;-58
2022/09/07 08:19:56;;;;;;;9.30;5.20;;;;;;;16.83;47.09;99268.52;238514;1190;139035;-58
2022/09/07 08:24:59;;;;;;;31.20;18.50;;;;;;;17.07;47.70;99268.95;238617;1190;140120;-58
2022/09/07 08:30:02;;;;;;;17.50;7.90;;;;;;;17.49;48.08;99264.24;238547;1191;140268;-59
2022/09/07 08:35:06;;;;;;;12.30;6.30;;;;;;;17.75;47.53;99265.43;238534;1192;140379;-59
2022/09/07 08:40:17;;;;;;;13.80;8.40;;;;;;;17.94;47.25;99262.84;238504;1190;139934;-60
2022/09/07 08:45:27;;;;;;;15.30;6.40;;;;;;;18.12;47.32;99262.49;238385;1192;139599;-59
2022/09/07 08:50:45;;;;;;;11.20;5.70;;;;;;;18.28;46.91;99255.14;238635;1190;139985;-59
2022/09/07 08:55:53;;;;;;;14.50;5.90;;;;;;;18.40;46.85;99241.24;238814;1190;139221;-59
2022/09/07 09:00:57;;;;;;;12.40;8.10;;;;;;;18.58;46.88;99234.98;238598;1190;140040;-59
2022/09/07 09:06:45;;;;;;;14.00;5.60;;;;;;;18.76;46.66;99230.65;238601;1192;139499;-59
2022/09/07 09:12:01;;;;;;;8.90;4.90;;;;;;;18.92;46.43;99228.27;238444;1192;140064;-59
2022/09/07 09:17:14;;;;;;;11.00;5.40;;;;;;;19.08;46.24;99225.65;238741;1190;139247;-60
2022/09/07 09:22:20;;;;;;;10.10;5.00;;;;;;;19.25;46.03;99221.73;238625;1190;139357;-60
2022/09/07 09:27:23;;;;;;;7.40;4.90;;;;;;;19.41;46.10;99215.15;238725;1190;139237;-59
2022/09/07 09:32:38;;;;;;;15.30;4.50;;;;;;;19.60;45.97;99218.36;238514;1192;139816;-60
2022/09/07 09:37:43;;;;;;;8.90;4.30;;;;;;;19.74;45.51;99215.79;238633;1190;139642;-59
2022/09/07 09:42:46;;;;;;;7.80;4.50;;;;;;;19.91;45.34;99215.73;238598;1191;142005;-60
2022/09/07 09:47:52;;;;;;;11.00;4.20;;;;;;;20.06;44.94;99217.33;238354;1192;139386;-59
2022/09/07 09:52:57;;;;;;;10.50;3.90;;;;;;;20.23;44.77;99214.41;238498;1192;140575;-59
2022/09/07 09:58:04;;;;;;;10.30;4.00;;;;;;;20.42;44.68;99210.84;238279;1191;139338;-59
2022/09/07 10:03:28;;;;;;;9.70;4.10;;;;;;;20.67;44.40;99204.05;238668;1191;139637;-60
2022/09/07 10:09:00;;;;;;;7.70;3.70;;;;;;;20.86;44.00;99201.22;238731;1190;139138;-60
2022/09/07 10:14:04;;;;;;;10.40;3.90;;;;;;;21.04;43.72;99194.14;238474;1190;139732;-60
2022/09/07 10:19:30;;;;;;;353.30;264.00;;;;;;;21.26;43.68;99185.02;238382;1192;139241;-60
2022/09/07 10:24:38;;;;;;;21.30;12.30;;;;;;;21.48;43.60;99187.73;238481;1191;139960;-59
2022/09/07 10:29:41;;;;;;;13.60;5.30;;;;;;;21.65;43.33;99183.67;238658;1190;139637;-59
2022/09/07 10:35:28;;;;;;;8.40;3.40;;;;;;;21.84;42.92;99180.67;238531;1191;139879;-57
2022/09/07 10:40:55;;;;;;;11.70;3.70;;;;;;;22.07;42.66;99173.49;238420;1192;139653;-59
2022/09/07 10:46:14;;;;;;;11.80;3.10;;;;;;;22.22;42.35;99165.11;238750;1191;139695;-59
2022/09/07 10:51:50;;;;;;;10.10;3.60;;;;;;;22.41;42.15;99167.19;238710;1190;139221;-60
2022/09/07 10:57:12;;;;;;;6.00;3.20;;;;;;;22.56;41.69;99164.77;238579;1191;140608;-59
2022/09/07 11:02:45;;;;;;;5.50;3.00;;;;;;;22.66;41.28;99165.44;238413;1191;139472;-59
2022/09/07 11:08:33;;;;;;;6.00;3.30;;;;;;;22.73;41.32;99160.77;238713;1190;152285;-59
2022/09/07 11:14:07;;;;;;;6.80;3.40;;;;;;;22.79;41.20;99157.77;238532;1191;138945;-59
2022/09/07 11:19:21;;;;;;;7.50;3.00;;;;;;;22.88;41.13;99154.38;238675;1192;139323;-59
2022/09/07 11:25:16;;;;;;;5.70;3.10;;;;;;;23.05;41.14;99149.42;238581;1191;139244;-59
2022/09/07 11:30:42;;;;;;;7.10;3.50;;;;;;;23.24;41.05;99145.62;238766;1190;138914;-59
2022/09/07 11:35:52;;;;;;;8.30;3.40;;;;;;;23.39;40.76;99145.58;238510;1191;139173;-59
2022/09/07 11:41:01;;;;;;;4.60;2.90;;;;;;;23.52;40.70;99138.17;238491;1191;139265;-59
2022/09/07 11:46:10;;;;;;;8.50;3.30;;;;;;;23.72;40.73;99135.44;238714;1190;139276;-59
2022/09/07 11:51:34;;;;;;;10.90;3.20;;;;;;;24.00;40.65;99132.64;238537;1191;139001;-59
2022/09/07 11:56:39;;;;;;;7.40;3.60;;;;;;;24.21;40.13;99128.27;237895;1192;139982;-59
2022/09/07 12:02:16;;;;;;;7.70;3.40;;;;;;;24.42;40.04;99123.08;237885;1192;140200;-58
2022/09/07 12:07:41;;;;;;;7.80;3.30;;;;;;;24.73;39.70;99124.70;238052;1192;139569;-60
2022/09/07 12:13:02;;;;;;;9.80;3.70;;;;;;;25.04;39.39;99114.74;237982;1192;139622;-58
2022/09/07 12:18:23;;;;;;;8.50;3.30;;;;;;;25.29;39.10;99109.59;238047;1192;139901;-59
2022/09/07 12:23:29;;;;;;;7.40;3.60;;;;;;;25.49;38.79;99100.27;237972;1192;139182;-60
2022/09/07 12:28:32;;;;;;;8.10;3.00;;;;;;;25.62;38.51;99093.38;238357;1190;139235;-60
2022/09/07 12:33:37;;;;;;;8.60;3.80;;;;;;;25.87;38.42;99090.44;238077;1191;139374;-60
2022/09/07 12:39:01;;;;;;;;;;;;;;;26.14;38.16;99081.17;238197;1191;139966;-59
2022/09/07 12:44:06;;;;;;;17.90;9.80;;;;;;;26.37;37.80;99080.13;238233;1190;126534;-59
2022/09/07 12:49:27;;;;;;;14.00;7.10;;;;;;;26.60;37.57;99074.95;237922;1192;139644;-60
2022/09/07 12:54:37;;;;;;;6.70;4.00;;;;;;;26.82;37.34;99070.88;237930;1191;139767;-60
2022/09/07 13:00:04;;;;;;;6.40;3.20;;;;;;;27.04;36.97;99078.58;238120;1191;139889;-60
2022/09/07 13:05:34;;;;;;;5.40;3.40;;;;;;;27.11;36.25;99078.35;238179;1191;139596;-56
2022/09/07 13:10:40;;;;;;;7.80;3.10;;;;;;;27.19;36.12;99074.98;237912;1192;141226;-59
2022/09/07 13:15:48;;;;;;;7.40;3.20;;;;;;;27.40;36.20;99071.16;237907;1192;140122;-60
2022/09/07 13:21:07;;;;;;;11.70;3.50;;;;;;;27.58;35.98;99058.21;238154;1191;139106;-59
2022/09/07 13:26:51;;;;;;;11.30;3.70;;;;;;;27.69;35.75;99051.94;238107;1191;139991;-60
2022/09/07 13:32:14;;;;;;;5.90;3.60;;;;;;;27.88;35.86;99053.33;238255;1192;139634;-60
2022/09/07 13:37:21;;;;;;;7.80;3.00;;;;;;;28.03;35.59;99049.23;238194;1190;140091;-60
2022/09/07 13:42:27;;;;;;;6.90;3.80;;;;;;;28.15;35.35;99034.34;238001;1192;139221;-60
2022/09/07 13:47:56;;;;;;;4.90;3.50;;;;;;;28.24;35.19;99031.34;237924;1192;139867;-60
2022/09/07 13:53:20;;;;;;;7.80;3.90;;;;;;;28.29;34.85;99030.88;238369;1190;139540;-59
2022/09/07 13:58:32;;;;;;;12.30;4.20;;;;;;;28.33;34.86;99022.92;238245;1191;139293;-58
2022/09/07 14:03:50;;;;;;;8.20;3.50;;;;;;;28.20;34.47;99017.69;238229;1190;140707;-58
2022/09/07 14:08:56;;;;;;;8.60;3.70;;;;;;;27.89;34.46;99019.70;238326;1190;140592;-60
2022/09/07 14:14:06;;;;;;;7.00;3.30;;;;;;;27.44;34.43;99021.77;238076;1192;141163;-58
2022/09/07 14:19:32;;;;;;;7.10;3.50;;;;;;;26.92;34.52;99022.79;238070;1192;139317;-56
2022/09/07 14:24:45;;;;;;;7.80;3.20;;;;;;;26.44;34.90;99021.33;238148;1191;139314;-59
2022/09/07 14:29:49;;;;;;;14.40;3.40;;;;;;;26.11;35.08;99019.61;237979;1191;139242;-58
2022/09/07 14:34:52;;;;;;;11.00;3.60;;;;;;;25.82;35.35;99015.08;238080;1192;139655;-60
2022/09/07 14:39:56;;;;;;;10.40;3.50;;;;;;;25.52;35.60;99015.42;237882;1192;140103;-60
2022/09/07 14:45:15;;;;;;;8.00;3.50;;;;;;;25.27;35.85;99015.42;238065;1191;140214;-59
2022/09/07 14:50:24;;;;;;;5.10;3.60;;;;;;;25.05;36.08;99011.34;238371;1192;139145;-59
2022/09/07 14:55:32;;;;;;;5.70;3.10;;;;;;;24.87;36.26;99009.45;238476;1191;139453;-59
2022/09/07 15:00:35;;;;;;;8.90;3.60;;;;;;;24.68;36.51;99011.98;238416;1191;138995;-60
2022/09/07 15:05:47;;;;;;;13.40;3.50;;;;;;;24.62;36.74;99015.02;238342;1191;139232;-60
2022/09/07 15:11:01;;;;;;;8.50;3.00;;;;;;;24.50;36.89;99013.92;238511;1191;139645;-59
2022/09/07 15:16:31;;;;;;;5.80;2.90;;;;;;;24.22;37.28;99013.18;238369;1191;139233;-59
2022/09/07 15:21:38;;;;;;;13.20;5.30;;;;;;;24.06;37.31;99015.97;238246;1192;139212;-60
2022/09/07 15:26:46;;;;;;;8.20;3.30;;;;;;;24.03;37.50;99011.14;238612;1191;139523;-60
2022/09/07 15:32:08;;;;;;;9.10;3.10;;;;;;;23.97;37.65;99008.44;238328;1192;139207;-58
2022/09/07 15:37:11;;;;;;;4.80;2.90;;;;;;;23.85;37.81;99006.72;238500;1190;138735;-60
2022/09/07 15:42:34;;;;;;;6.30;3.40;;;;;;;23.74;37.91;99006.77;238701;1190;139383;-59
2022/09/07 15:47:58;;;;;;;8.90;3.20;;;;;;;23.67;38.09;99000.29;238713;1191;139170;-59
2022/09/07 15:53:01;;;;;;;6.00;3.40;;;;;;;23.64;38.24;98994.38;238652;1191;139632;-59
2022/09/07 15:58:05;;;;;;;4.70;3.00;;;;;;;23.63;38.37;98988.67;238568;1191;139463;-59
2022/09/07 16:03:13;;;;;;;10.10;3.20;;;;;;;23.60;38.41;98984.40;238718;1190;141897;-59
2022/09/07 16:08:17;;;;;;;10.00;3.70;;;;;;;23.52;38.52;98980.12;238609;1191;139605;-58
2022/09/07 16:13:27;;;;;;;11.70;3.50;;;;;;;23.41;38.67;98979.09;238545;1191;139411;-60
2022/09/07 16:18:33;;;;;;;6.70;3.90;;;;;;;23.39;38.70;98973.88;238598;1193;142164;-60
2022/09/07 16:23:39;;;;;;;5.10;3.60;;;;;;;23.39;38.86;98968.23;238324;1192;139463;-60
2022/09/07 16:28:44;;;;;;;7.90;4.30;;;;;;;23.35;38.93;98961.64;238606;1192;139448;-58
2022/09/07 16:33:47;;;;;;;8.00;3.20;;;;;;;23.30;39.14;98966.27;238535;1191;139480;-59
2022/09/07 16:38:58;;;;;;;7.50;3.90;;;;;;;23.24;39.26;98968.35;238368;1192;139235;-57
2022/09/07 16:44:02;;;;;;;7.10;3.60;;;;;;;23.22;39.49;98965.80;238389;1191;139219;-59
2022/09/07 16:49:06;;;;;;;7.80;3.80;;;;;;;23.21;39.66;98964.54;238573;1190;139432;-59
2022/09/07 16:54:12;;;;;;;7.10;4.10;;;;;;;23.21;39.71;98964.04;238598;1190;139180;-59
2022/09/07 16:59:17;;;;;;;6.90;4.10;;;;;;;23.19;39.70;98966.50;238532;1192;139388;-58
2022/09/07 17:04:22;;;;;;;8.30;4.40;;;;;;;23.12;39.81;98969.24;238461;1192;139554;-58
2022/09/07 17:09:27;;;;;;;10.70;4.30;;;;;;;23.03;39.81;98970.84;238220;1191;139293;-58
2022/09/07 17:14:31;;;;;;;10.30;4.30;;;;;;;22.89;39.98;98972.94;238572;1192;141201;-57
2022/09/07 17:19:34;;;;;;;6.90;4.20;;;;;;;22.74;40.08;98975.06;238650;1191;139947;-58
2022/09/07 17:24:37;;;;;;;12.70;5.40;;;;;;;22.56;40.25;98986.17;238497;1191;140016;-59
2022/09/07 17:29:41;;;;;;;11.60;5.30;;;;;;;22.39;40.45;98991.59;238488;1191;139423;-59
2022/09/07 17:34:44;;;;;;;7.50;4.80;;;;;;;22.23;40.90;98993.84;238691;1190;139702;-56
2022/09/07 17:39:48;;;;;;;9.70;4.80;;;;;;;22.07;41.08;98997.21;238734;1191;139301;-58
2022/09/07 17:44:51;;;;;;;13.40;5.80;;;;;;;21.91;41.26;98999.62;238452;1192;140292;-58
2022/09/07 17:49:54;;;;;;;9.70;5.20;;;;;;;21.77;41.62;99003.90;238709;1190;140070;-58
2022/09/07 17:55:00;;;;;;;14.20;6.10;;;;;;;21.62;41.74;99004.04;238581;1192;140707;-58
2022/09/07 18:00:07;;;;;;;12.70;6.60;;;;;;;21.50;41.90;99015.02;238589;1190;139975;-59
2022/09/07 18:05:15;;;;;;;16.00;6.40;;;;;;;21.37;42.17;99006.41;238546;1192;140634;-59
2022/09/07 18:10:19;;;;;;;11.40;6.30;;;;;;;21.25;42.42;99005.34;238440;1192;139605;-57
2022/09/07 18:15:22;;;;;;;15.50;6.10;;;;;;;21.13;42.76;99006.65;238656;1192;139531;-58
2022/09/07 18:20:25;;;;;;;18.00;6.00;;;;;;;21.01;43.09;99009.48;238653;1190;140396;-56
2022/09/07 18:25:28;;;;;;;12.10;5.40;;;;;;;20.94;43.16;99011.68;238687;1190;139334;-57
2022/09/07 18:30:35;;;;;;;;;;;;;;;20.86;43.36;99012.86;238626;1190;139543;-58
2022/09/07 18:35:49;;;;;;;14.10;5.50;;;;;;;20.76;43.49;99013.55;238500;1191;126463;-57
2022/09/07 18:41:10;;;;;;;11.30;5.30;;;;;;;20.67;43.72;99010.15;238411;1192;139845;-58
2022/09/07 18:46:21;;;;;;;10.70;5.70;;;;;;;20.58;43.93;99005.91;238154;1191;139283;-57
2022/09/07 18:51:25;;;;;;;8.80;5.50;;;;;;;20.49;44.03;99011.48;238428;1191;140333;-58
2022/09/07 18:56:28;;;;;;;15.50;5.80;;;;;;;20.40;44.16;99009.95;238391;1191;139366;-57
2022/09/07 19:01:31;;;;;;;11.80;5.90;;;;;;;20.31;44.31;99005.80;238258;1192;140028;-56
2022/09/07 19:06:34;;;;;;;9.40;6.10;;;;;;;20.22;44.59;99004.71;238653;1192;140013;-57
2022/09/07 19:11:39;;;;;;;15.60;6.00;;;;;;;20.17;44.70;99004.52;238693;1191;139367;-57
2022/09/07 19:16:43;;;;;;;12.40;6.20;;;;;;;20.13;44.68;99006.38;238667;1192;139702;-57
2022/09/07 19:21:47;;;;;;;12.50;6.70;;;;;;;20.11;44.71;99002.64;238446;1192;140513;-57
2022/09/07 19:26:50;;;;;;;13.00;7.00;;;;;;;20.07;44.47;98999.64;238429;1192;140306;-56
2022/09/07 19:32:06;;;;;;;10.50;6.40;;;;;;;20.04;44.64;98995.42;238499;1192;139913;-56
2022/09/07 19:37:11;;;;;;;12.20;7.10;;;;;;;20.02;44.55;98996.36;238743;1190;140010;-57
2022/09/07 19:42:14;;;;;;;15.10;7.70;;;;;;;20.00;44.51;98993.68;238657;1192;140621;-57
2022/09/07 19:47:17;;;;;;;20.50;7.90;;;;;;;19.95;44.50;98992.01;238725;1191;139972;-58
2022/09/07 19:52:20;;;;;;;11.60;6.90;;;;;;;19.91;44.50;98994.21;238407;1191;139793;-57
2022/09/07 19:57:23;;;;;;;18.80;7.50;;;;;;;19.88;44.33;99003.05;238702;1190;139706;-58
2022/09/07 20:02:26;;;;;;;12.40;7.60;;;;;;;19.84;44.32;99005.14;238720;1190;139955;-58
2022/09/07 20:07:29;;;;;;;15.70;7.20;;;;;;;19.79;44.26;99004.98;238774;1191;139555;-58
2022/09/07 20:12:32;;;;;;;10.90;6.30;;;;;;;19.75;44.34;99013.48;238747;1190;139850;-59
2022/09/07 20:17:36;;;;;;;11.90;6.90;;;;;;;19.73;44.33;99008.14;238462;1191;139731;-59
2022/09/07 20:22:40;;;;;;;13.60;7.50;;;;;;;19.71;44.19;99001.35;238460;1192;139656;-57
2022/09/07 20:27:42;;;;;;;14.60;6.90;;;;;;;19.68;44.19;98998.17;238627;1191;141035;-57
2022/09/07 20:32:45;;;;;;;14.20;6.50;;;;;;;19.63;44.04;98997.58;238686;1190;139330;-58
2022/09/07 20:37:49;;;;;;;14.20;7.10;;;;;;;19.59;44.03;99001.20;238652;1191;140245;-59
2022/09/07 20:42:52;;;;;;;10.80;6.80;;;;;;;19.53;44.02;98990.59;238520;1192;139703;-57
2022/09/07 20:47:55;;;;;;;10.50;6.50;;;;;;;19.50;43.93;98989.85;238519;1192;138956;-59
2022/09/07 20:52:58;;;;;;;15.40;7.30;;;;;;;19.46;43.71;98984.64;238685;1192;139732;-59
2022/09/07 20:58:01;;;;;;;12.50;7.30;;;;;;;19.44;43.72;98980.00;238554;1190;139434;-59
2022/09/07 21:03:04;;;;;;;11.50;5.90;;;;;;;19.41;43.60;98983.70;238751;1191;141125;-59
2022/09/07 21:08:07;;;;;;;16.80;6.90;;;;;;;19.37;43.50;98986.83;238726;1190;139563;-57
2022/09/07 21:13:10;;;;;;;16.80;6.60;;;;;;;19.34;43.50;98985.19;238476;1191;140414;-57
2022/09/07 21:18:16;;;;;;;10.20;5.40;;;;;;;19.31;43.26;98982.02;238545;1192;139885;-58
2022/09/07 21:23:19;;;;;;;13.10;6.40;;;;;;;19.29;43.05;98981.38;238814;1190;139670;-58
2022/09/07 21:28:24;;;;;;;11.90;5.90;;;;;;;19.26;43.07;98982.51;238557;1190;139290;-57
2022/09/07 21:33:29;;;;;;;12.90;6.10;;;;;;;19.21;43.07;98980.86;238488;1192;139949;-58
2022/09/07 21:38:34;;;;;;;10.40;6.20;;;;;;;19.13;43.17;98981.96;238611;1190;139289;-58
2022/09/07 21:43:37;;;;;;;8.20;5.00;;;;;;;19.04;43.10;98981.30;238695;1190;141123;-58
2022/09/07 21:48:42;;;;;;;10.80;5.90;;;;;;;18.92;43.26;98979.34;238501;1192;140176;-58
2022/09/07 21:53:50;;;;;;;11.20;6.10;;;;;;;18.82;43.15;98975.54;238609;1191;140140;-58
2022/09/07 21:58:54;;;;;;;8.40;5.50;;;;;;;18.73;43.18;98978.17;238638;1190;139852;-58
2022/09/07 22:04:02;;;;;;;11.10;5.50;;;;;;;18.66;43.26;98976.14;238484;1190;140218;-58
2022/09/07 22:09:05;;;;;;;10.50;5.70;;;;;;;18.58;43.57;98970.95;238695;1190;139823;-59
2022/09/07 22:14:10;;;;;;;11.20;5.80;;;;;;;18.51;43.49;98967.52;238596;1190;139346;-59
2022/09/07 22:19:13;;;;;;;11.30;5.60;;;;;;;18.45;43.53;98965.23;238591;1192;139160;-59
2022/09/07 22:24:16;;;;;;;12.00;5.80;;;;;;;18.37;43.68;98968.80;238634;1191;139268;-58
2022/09/07 22:29:19;;;;;;;9.80;5.50;;;;;;;18.31;43.70;98966.73;238645;1191;139412;-56
2022/09/07 22:34:22;;;;;;;10.60;5.60;;;;;;;18.24;43.73;98966.18;238684;1192;139420;-56
2022/09/07 22:39:25;;;;;;;10.60;5.50;;;;;;;18.16;44.09;98964.41;238658;1190;140367;-57
2022/09/07 22:44:28;;;;;;;14.90;6.30;;;;;;;18.08;44.13;98956.57;238673;1192;139593;-57
2022/09/07 22:49:31;;;;;;;12.10;5.70;;;;;;;18.00;44.38;98957.86;238690;1192;139701;-58
2022/09/07 22:54:34;;;;;;;11.70;5.90;;;;;;;17.91;44.52;98958.13;238415;1192;139361;-57
2022/09/07 22:59:37;;;;;;;11.50;5.80;;;;;;;17.83;44.49;98958.02;238544;1191;139742;-58
2022/09/07 23:04:40;;;;;;;12.40;5.70;;;;;;;17.76;44.74;98949.16;238861;1190;139375;-58
2022/09/07 23:09:43;;;;;;;11.50;5.70;;;;;;;17.71;44.92;98947.95;238520;1192;139777;-57
2022/09/07 23:14:46;;;;;;;12.90;6.10;;;;;;;17.66;45.03;98945.19;238417;1192;140896;-58
2022/09/07 23:19:49;;;;;;;9.40;5.50;;;;;;;17.62;45.39;98946.07;238727;1190;140171;-58
2022/09/07 23:24:52;;;;;;;9.60;5.80;;;;;;;17.58;45.48;98938.01;238750;1190;138919;-58
2022/09/07 23:29:55;;;;;;;10.50;5.80;;;;;;;17.55;45.65;98936.40;238358;1192;139973;-58
2022/09/07 23:34:58;;;;;;;12.40;6.50;;;;;;;17.47;45.89;98928.41;238539;1192;140082;-58